sensor_id;sensor_type;location;lat;lon;timestamp;temperature;humidity
820;DHT22;392;48.838;2.322;2023-03-30T00:00:41;17.40;23.90
820;DHT22;392;48.838;2.322;2023-03-30T00:03:09;17.40;24.20
820;DHT22;392;48.838;2.322;2023-03-30T00:05:37;17.40;24.50
820;DHT22;392;48.838;2.322;2023-03-30T00:08:05;17.40;24.80
820;DHT22;392;48.838;2.322;2023-03-30T00:10:41;17.40;25.10
820;DHT22;392;48.838;2.322;2023-03-30T00:13:30;17.40;25.40
820;DHT22;392;48.838;2.322;2023-03-30T00:15:58;17.40;26.00
820;DHT22;392;48.838;2.322;2023-03-30T00:18:26;17.40;26.70
820;DHT22;392;48.838;2.322;2023-03-30T00:20:55;17.30;26.80
820;DHT22;392;48.838;2.322;2023-03-30T00:23:23;17.30;27.00
820;DHT22;392;48.838;2.322;2023-03-30T00:25:52;17.30;27.40
820;DHT22;392;48.838;2.322;2023-03-30T00:28:19;17.20;27.40
820;DHT22;392;48.838;2.322;2023-03-30T00:30:48;17.20;27.50
820;DHT22;392;48.838;2.322;2023-03-30T00:33:15;17.10;27.20
820;DHT22;392;48.838;2.322;2023-03-30T00:35:42;17.10;27.20
820;DHT22;392;48.838;2.322;2023-03-30T00:38:09;17.10;27.30
820;DHT22;392;48.838;2.322;2023-03-30T00:40:37;17.00;27.40
820;DHT22;392;48.838;2.322;2023-03-30T00:43:10;17.00;27.40
820;DHT22;392;48.838;2.322;2023-03-30T00:45:37;17.00;27.50
820;DHT22;392;48.838;2.322;2023-03-30T00:48:07;16.90;27.60
820;DHT22;392;48.838;2.322;2023-03-30T00:50:39;16.90;27.80
820;DHT22;392;48.838;2.322;2023-03-30T00:53:13;16.80;27.80
820;DHT22;392;48.838;2.322;2023-03-30T00:55:44;16.90;27.90
820;DHT22;392;48.838;2.322;2023-03-30T00:58:15;16.80;28.00
820;DHT22;392;48.838;2.322;2023-03-30T01:00:43;16.80;28.00
820;DHT22;392;48.838;2.322;2023-03-30T01:03:15;16.80;28.00
820;DHT22;392;48.838;2.322;2023-03-30T01:05:45;16.80;28.10
820;DHT22;392;48.838;2.322;2023-03-30T01:08:13;16.80;28.20
820;DHT22;392;48.838;2.322;2023-03-30T01:10:43;16.80;28.20
820;DHT22;392;48.838;2.322;2023-03-30T01:13:13;16.80;28.40
820;DHT22;392;48.838;2.322;2023-03-30T01:15:55;16.80;28.50
820;DHT22;392;48.838;2.322;2023-03-30T01:18:38;16.80;28.70
820;DHT22;392;48.838;2.322;2023-03-30T01:21:57;16.70;28.90
820;DHT22;392;48.838;2.322;2023-03-30T01:25:13;16.70;29.40
820;DHT22;392;48.838;2.322;2023-03-30T01:28:25;16.60;29.90
820;DHT22;392;48.838;2.322;2023-03-30T01:31:10;16.50;30.00
820;DHT22;392;48.838;2.322;2023-03-30T01:34:21;16.50;30.40
820;DHT22;392;48.838;2.322;2023-03-30T01:37:26;16.50;30.60
820;DHT22;392;48.838;2.322;2023-03-30T01:40:20;16.50;30.80
820;DHT22;392;48.838;2.322;2023-03-30T01:42:54;16.50;31.10
820;DHT22;392;48.838;2.322;2023-03-30T01:45:29;16.40;31.30
820;DHT22;392;48.838;2.322;2023-03-30T01:48:09;16.40;31.60
820;DHT22;392;48.838;2.322;2023-03-30T01:50:41;16.40;31.80
820;DHT22;392;48.838;2.322;2023-03-30T01:53:15;16.30;31.90
820;DHT22;392;48.838;2.322;2023-03-30T01:55:48;16.30;31.90
820;DHT22;392;48.838;2.322;2023-03-30T01:58:22;16.30;31.90
820;DHT22;392;48.838;2.322;2023-03-30T02:00:55;16.30;31.80
820;DHT22;392;48.838;2.322;2023-03-30T02:03:26;16.20;31.70
820;DHT22;392;48.838;2.322;2023-03-30T02:05:58;16.20;31.60
820;DHT22;392;48.838;2.322;2023-03-30T02:08:30;16.20;31.60
820;DHT22;392;48.838;2.322;2023-03-30T02:11:00;16.20;31.50
820;DHT22;392;48.838;2.322;2023-03-30T02:13:29;16.20;31.50
820;DHT22;392;48.838;2.322;2023-03-30T02:16:00;16.20;31.30
820;DHT22;392;48.838;2.322;2023-03-30T02:18:29;16.10;31.30
820;DHT22;392;48.838;2.322;2023-03-30T02:20:56;16.10;31.50
820;DHT22;392;48.838;2.322;2023-03-30T02:23:29;16.10;31.80
820;DHT22;392;48.838;2.322;2023-03-30T02:26:01;16.00;31.70
820;DHT22;392;48.838;2.322;2023-03-30T02:28:29;16.00;31.80
820;DHT22;392;48.838;2.322;2023-03-30T02:30:57;16.00;31.90
820;DHT22;392;48.838;2.322;2023-03-30T02:33:30;16.00;31.90
820;DHT22;392;48.838;2.322;2023-03-30T02:36:15;16.00;31.90
820;DHT22;392;48.838;2.322;2023-03-30T02:39:03;15.90;31.90
820;DHT22;392;48.838;2.322;2023-03-30T02:42:00;15.90;31.90
820;DHT22;392;48.838;2.322;2023-03-30T02:44:37;15.90;32.00
820;DHT22;392;48.838;2.322;2023-03-30T02:47:12;15.80;32.80
820;DHT22;392;48.838;2.322;2023-03-30T02:49:52;15.80;32.40
820;DHT22;392;48.838;2.322;2023-03-30T02:52:28;15.70;32.70
820;DHT22;392;48.838;2.322;2023-03-30T02:55:26;15.70;33.00
820;DHT22;392;48.838;2.322;2023-03-30T02:58:24;15.70;32.80
820;DHT22;392;48.838;2.322;2023-03-30T03:01:11;15.70;33.20
820;DHT22;392;48.838;2.322;2023-03-30T03:03:51;15.60;33.40
820;DHT22;392;48.838;2.322;2023-03-30T03:06:19;15.60;33.60
820;DHT22;392;48.838;2.322;2023-03-30T03:08:52;15.60;34.00
820;DHT22;392;48.838;2.322;2023-03-30T03:11:24;15.60;34.00
820;DHT22;392;48.838;2.322;2023-03-30T03:13:53;15.60;34.10
820;DHT22;392;48.838;2.322;2023-03-30T03:16:30;15.60;34.70
820;DHT22;392;48.838;2.322;2023-03-30T03:19:08;15.50;34.90
820;DHT22;392;48.838;2.322;2023-03-30T03:21:37;15.50;35.00
820;DHT22;392;48.838;2.322;2023-03-30T03:24:05;15.40;35.30
820;DHT22;392;48.838;2.322;2023-03-30T03:26:51;15.50;35.70
820;DHT22;392;48.838;2.322;2023-03-30T03:29:21;15.40;36.00
820;DHT22;392;48.838;2.322;2023-03-30T03:31:48;15.40;36.20
820;DHT22;392;48.838;2.322;2023-03-30T03:34:18;15.40;36.60
820;DHT22;392;48.838;2.322;2023-03-30T03:37:06;15.40;36.80
820;DHT22;392;48.838;2.322;2023-03-30T03:39:34;15.40;37.10
820;DHT22;392;48.838;2.322;2023-03-30T03:42:10;15.40;37.10
820;DHT22;392;48.838;2.322;2023-03-30T03:44:48;15.30;37.20
820;DHT22;392;48.838;2.322;2023-03-30T03:47:15;15.30;37.30
820;DHT22;392;48.838;2.322;2023-03-30T03:49:44;15.30;37.60
820;DHT22;392;48.838;2.322;2023-03-30T03:52:12;15.30;37.80
820;DHT22;392;48.838;2.322;2023-03-30T03:54:39;15.20;38.10
820;DHT22;392;48.838;2.322;2023-03-30T03:57:06;15.20;38.40
820;DHT22;392;48.838;2.322;2023-03-30T03:59:34;15.20;38.60
820;DHT22;392;48.838;2.322;2023-03-30T04:02:02;15.10;38.60
820;DHT22;392;48.838;2.322;2023-03-30T04:04:30;15.10;38.90
820;DHT22;392;48.838;2.322;2023-03-30T04:06:57;15.00;39.50
820;DHT22;392;48.838;2.322;2023-03-30T04:09:24;15.00;39.80
820;DHT22;392;48.838;2.322;2023-03-30T04:12:10;14.90;40.20
820;DHT22;392;48.838;2.322;2023-03-30T04:15:00;14.90;40.70
820;DHT22;392;48.838;2.322;2023-03-30T04:17:38;14.80;41.20
820;DHT22;392;48.838;2.322;2023-03-30T04:20:39;14.70;41.40
820;DHT22;392;48.838;2.322;2023-03-30T04:23:21;14.70;41.50
820;DHT22;392;48.838;2.322;2023-03-30T04:26:11;14.70;42.60
820;DHT22;392;48.838;2.322;2023-03-30T04:28:49;14.70;42.20
820;DHT22;392;48.838;2.322;2023-03-30T04:31:36;14.70;42.40
820;DHT22;392;48.838;2.322;2023-03-30T04:34:08;14.60;42.70
820;DHT22;392;48.838;2.322;2023-03-30T04:36:54;14.60;43.20
820;DHT22;392;48.838;2.322;2023-03-30T04:39:32;14.60;43.20
820;DHT22;392;48.838;2.322;2023-03-30T04:42:15;14.60;43.20
820;DHT22;392;48.838;2.322;2023-03-30T04:45:04;14.50;43.10
820;DHT22;392;48.838;2.322;2023-03-30T04:48:03;14.50;43.40
820;DHT22;392;48.838;2.322;2023-03-30T04:50:51;14.50;43.60
820;DHT22;392;48.838;2.322;2023-03-30T04:53:36;14.50;43.80
820;DHT22;392;48.838;2.322;2023-03-30T04:56:22;14.50;44.00
820;DHT22;392;48.838;2.322;2023-03-30T04:59:14;14.40;44.20
820;DHT22;392;48.838;2.322;2023-03-30T05:02:07;14.40;44.40
820;DHT22;392;48.838;2.322;2023-03-30T05:04:52;14.40;44.70
820;DHT22;392;48.838;2.322;2023-03-30T05:07:41;14.30;45.10
820;DHT22;392;48.838;2.322;2023-03-30T05:10:19;14.30;45.40
820;DHT22;392;48.838;2.322;2023-03-30T05:13:00;14.30;45.70
820;DHT22;392;48.838;2.322;2023-03-30T05:15:41;14.20;46.00
820;DHT22;392;48.838;2.322;2023-03-30T05:18:30;14.20;46.10
820;DHT22;392;48.838;2.322;2023-03-30T05:21:12;14.20;46.40
820;DHT22;392;48.838;2.322;2023-03-30T05:24:05;14.10;46.80
820;DHT22;392;48.838;2.322;2023-03-30T05:26:53;14.10;47.00
820;DHT22;392;48.838;2.322;2023-03-30T05:29:37;14.10;47.10
820;DHT22;392;48.838;2.322;2023-03-30T05:32:25;14.10;47.40
820;DHT22;392;48.838;2.322;2023-03-30T05:35:19;14.10;47.60
820;DHT22;392;48.838;2.322;2023-03-30T05:38:04;14.00;47.60
820;DHT22;392;48.838;2.322;2023-03-30T05:40:52;14.00;47.60
820;DHT22;392;48.838;2.322;2023-03-30T05:43:46;14.00;47.70
820;DHT22;392;48.838;2.322;2023-03-30T05:46:37;14.00;48.10
820;DHT22;392;48.838;2.322;2023-03-30T05:49:21;14.00;48.00
820;DHT22;392;48.838;2.322;2023-03-30T05:51:52;14.00;47.90
820;DHT22;392;48.838;2.322;2023-03-30T05:54:36;14.00;47.70
820;DHT22;392;48.838;2.322;2023-03-30T05:57:24;14.00;48.10
820;DHT22;392;48.838;2.322;2023-03-30T06:00:19;14.00;48.40
820;DHT22;392;48.838;2.322;2023-03-30T06:03:01;14.00;48.70
820;DHT22;392;48.838;2.322;2023-03-30T06:05:33;14.00;49.20
820;DHT22;392;48.838;2.322;2023-03-30T06:08:01;14.00;49.40
820;DHT22;392;48.838;2.322;2023-03-30T06:10:29;14.00;49.70
820;DHT22;392;48.838;2.322;2023-03-30T06:12:58;14.00;50.00
820;DHT22;392;48.838;2.322;2023-03-30T06:15:34;13.90;50.10
820;DHT22;392;48.838;2.322;2023-03-30T06:18:07;14.00;50.30
820;DHT22;392;48.838;2.322;2023-03-30T06:20:38;14.00;50.60
820;DHT22;392;48.838;2.322;2023-03-30T06:23:06;14.00;50.10
820;DHT22;392;48.838;2.322;2023-03-30T06:25:34;14.00;50.70
820;DHT22;392;48.838;2.322;2023-03-30T06:28:03;14.00;49.80
820;DHT22;392;48.838;2.322;2023-03-30T06:30:31;14.00;49.50
820;DHT22;392;48.838;2.322;2023-03-30T06:33:01;14.10;49.10
820;DHT22;392;48.838;2.322;2023-03-30T06:35:44;14.10;48.20
820;DHT22;392;48.838;2.322;2023-03-30T06:38:12;14.10;48.10
820;DHT22;392;48.838;2.322;2023-03-30T06:40:40;14.10;48.30
820;DHT22;392;48.838;2.322;2023-03-30T06:43:14;14.10;48.50
820;DHT22;392;48.838;2.322;2023-03-30T06:45:55;14.20;48.60
820;DHT22;392;48.838;2.322;2023-03-30T06:48:25;14.20;48.20
820;DHT22;392;48.838;2.322;2023-03-30T06:51:12;14.20;48.30
820;DHT22;392;48.838;2.322;2023-03-30T06:53:40;14.20;48.80
820;DHT22;392;48.838;2.322;2023-03-30T06:56:08;14.20;47.90
820;DHT22;392;48.838;2.322;2023-03-30T06:58:46;14.30;47.90
820;DHT22;392;48.838;2.322;2023-03-30T07:01:14;14.30;47.70
820;DHT22;392;48.838;2.322;2023-03-30T07:04:12;14.30;47.90
820;DHT22;392;48.838;2.322;2023-03-30T07:06:59;14.30;47.90
820;DHT22;392;48.838;2.322;2023-03-30T07:09:28;14.30;47.60
820;DHT22;392;48.838;2.322;2023-03-30T07:11:55;14.30;47.60
820;DHT22;392;48.838;2.322;2023-03-30T07:14:24;14.30;47.90
820;DHT22;392;48.838;2.322;2023-03-30T07:16:51;14.40;47.90
820;DHT22;392;48.838;2.322;2023-03-30T07:19:18;14.40;47.40
820;DHT22;392;48.838;2.322;2023-03-30T07:21:46;14.50;47.40
820;DHT22;392;48.838;2.322;2023-03-30T07:24:16;14.50;46.90
820;DHT22;392;48.838;2.322;2023-03-30T07:26:43;14.50;46.40
820;DHT22;392;48.838;2.322;2023-03-30T07:29:10;14.60;46.10
820;DHT22;392;48.838;2.322;2023-03-30T07:31:42;14.60;46.10
820;DHT22;392;48.838;2.322;2023-03-30T07:34:11;14.70;45.50
820;DHT22;392;48.838;2.322;2023-03-30T07:36:44;14.70;44.40
820;DHT22;392;48.838;2.322;2023-03-30T07:39:12;14.70;44.60
820;DHT22;392;48.838;2.322;2023-03-30T07:41:42;14.70;43.80
820;DHT22;392;48.838;2.322;2023-03-30T07:44:12;14.70;43.30
820;DHT22;392;48.838;2.322;2023-03-30T07:46:39;14.80;43.40
820;DHT22;392;48.838;2.322;2023-03-30T07:49:13;14.90;43.40
820;DHT22;392;48.838;2.322;2023-03-30T07:51:41;15.00;42.90
820;DHT22;392;48.838;2.322;2023-03-30T07:54:16;15.00;42.60
820;DHT22;392;48.838;2.322;2023-03-30T07:57:22;15.00;41.70
820;DHT22;392;48.838;2.322;2023-03-30T07:59:50;15.10;41.10
820;DHT22;392;48.838;2.322;2023-03-30T08:02:39;15.10;40.40
820;DHT22;392;48.838;2.322;2023-03-30T08:05:11;15.10;40.30
820;DHT22;392;48.838;2.322;2023-03-30T08:08:05;15.10;38.70
820;DHT22;392;48.838;2.322;2023-03-30T08:10:34;15.10;38.60
820;DHT22;392;48.838;2.322;2023-03-30T08:13:01;15.20;38.70
820;DHT22;392;48.838;2.322;2023-03-30T08:15:29;15.20;38.40
820;DHT22;392;48.838;2.322;2023-03-30T08:17:58;15.30;38.10
820;DHT22;392;48.838;2.322;2023-03-30T08:20:28;15.30;37.40
820;DHT22;392;48.838;2.322;2023-03-30T08:22:56;15.40;38.20
820;DHT22;392;48.838;2.322;2023-03-30T08:25:23;15.50;37.60
820;DHT22;392;48.838;2.322;2023-03-30T08:27:50;15.50;37.60
820;DHT22;392;48.838;2.322;2023-03-30T08:30:18;15.60;37.00
820;DHT22;392;48.838;2.322;2023-03-30T08:32:45;15.70;36.60
820;DHT22;392;48.838;2.322;2023-03-30T08:35:14;15.70;35.00
820;DHT22;392;48.838;2.322;2023-03-30T08:37:41;15.70;36.10
820;DHT22;392;48.838;2.322;2023-03-30T08:40:10;15.70;36.30
820;DHT22;392;48.838;2.322;2023-03-30T08:42:57;15.70;36.60
820;DHT22;392;48.838;2.322;2023-03-30T08:45:35;15.80;36.00
820;DHT22;392;48.838;2.322;2023-03-30T08:48:05;15.70;37.30
820;DHT22;392;48.838;2.322;2023-03-30T08:50:35;15.70;37.10
820;DHT22;392;48.838;2.322;2023-03-30T08:53:06;15.80;36.10
820;DHT22;392;48.838;2.322;2023-03-30T08:55:39;16.00;35.80
820;DHT22;392;48.838;2.322;2023-03-30T08:58:13;16.10;35.30
820;DHT22;392;48.838;2.322;2023-03-30T09:00:49;16.10;34.70
820;DHT22;392;48.838;2.322;2023-03-30T09:03:26;16.20;34.50
820;DHT22;392;48.838;2.322;2023-03-30T09:06:04;16.10;34.50
820;DHT22;392;48.838;2.322;2023-03-30T09:08:37;16.00;35.40
820;DHT22;392;48.838;2.322;2023-03-30T09:11:09;15.90;35.40
820;DHT22;392;48.838;2.322;2023-03-30T09:13:40;15.90;36.40
820;DHT22;392;48.838;2.322;2023-03-30T09:16:15;15.80;37.20
820;DHT22;392;48.838;2.322;2023-03-30T09:18:47;15.70;37.70
820;DHT22;392;48.838;2.322;2023-03-30T09:21:20;15.70;38.30
820;DHT22;392;48.838;2.322;2023-03-30T09:23:56;15.70;37.90
820;DHT22;392;48.838;2.322;2023-03-30T09:26:30;15.80;38.00
820;DHT22;392;48.838;2.322;2023-03-30T09:29:05;15.90;37.70
820;DHT22;392;48.838;2.322;2023-03-30T09:31:39;16.00;37.50
820;DHT22;392;48.838;2.322;2023-03-30T09:34:18;16.20;37.10
820;DHT22;392;48.838;2.322;2023-03-30T09:36:55;16.40;34.80
820;DHT22;392;48.838;2.322;2023-03-30T09:39:25;16.70;33.20
820;DHT22;392;48.838;2.322;2023-03-30T09:42:01;16.90;33.10
820;DHT22;392;48.838;2.322;2023-03-30T09:44:41;17.00;32.20
820;DHT22;392;48.838;2.322;2023-03-30T09:47:21;17.00;31.80
820;DHT22;392;48.838;2.322;2023-03-30T09:49:55;17.10;31.00
820;DHT22;392;48.838;2.322;2023-03-30T09:52:26;17.30;30.00
820;DHT22;392;48.838;2.322;2023-03-30T09:54:54;17.40;30.00
820;DHT22;392;48.838;2.322;2023-03-30T09:57:25;17.50;29.70
820;DHT22;392;48.838;2.322;2023-03-30T09:59:54;17.30;28.90
820;DHT22;392;48.838;2.322;2023-03-30T10:02:23;17.20;29.60
820;DHT22;392;48.838;2.322;2023-03-30T10:04:58;17.00;30.10
820;DHT22;392;48.838;2.322;2023-03-30T10:07:31;16.90;30.70
820;DHT22;392;48.838;2.322;2023-03-30T10:10:03;16.90;29.50
820;DHT22;392;48.838;2.322;2023-03-30T10:12:39;16.80;29.80
820;DHT22;392;48.838;2.322;2023-03-30T10:15:14;16.80;29.90
820;DHT22;392;48.838;2.322;2023-03-30T10:17:45;16.70;30.00
820;DHT22;392;48.838;2.322;2023-03-30T10:20:20;16.60;30.30
820;DHT22;392;48.838;2.322;2023-03-30T10:22:53;16.60;30.30
820;DHT22;392;48.838;2.322;2023-03-30T10:25:25;16.80;30.00
820;DHT22;392;48.838;2.322;2023-03-30T10:27:55;17.00;29.30
820;DHT22;392;48.838;2.322;2023-03-30T10:30:26;17.30;27.30
820;DHT22;392;48.838;2.322;2023-03-30T10:32:56;17.40;27.10
820;DHT22;392;48.838;2.322;2023-03-30T10:35:26;17.40;26.70
820;DHT22;392;48.838;2.322;2023-03-30T10:38:00;17.50;26.90
820;DHT22;392;48.838;2.322;2023-03-30T10:40:32;17.40;27.00
820;DHT22;392;48.838;2.322;2023-03-30T10:43:02;17.20;27.40
820;DHT22;392;48.838;2.322;2023-03-30T10:45:35;17.30;27.30
820;DHT22;392;48.838;2.322;2023-03-30T10:48:15;18.00;26.50
820;DHT22;392;48.838;2.322;2023-03-30T10:50:55;19.40;23.20
820;DHT22;392;48.838;2.322;2023-03-30T10:53:35;20.80;20.80
820;DHT22;392;48.838;2.322;2023-03-30T10:56:13;21.70;18.60
820;DHT22;392;48.838;2.322;2023-03-30T10:58:55;22.40;17.30
820;DHT22;392;48.838;2.322;2023-03-30T11:01:39;22.40;16.30
820;DHT22;392;48.838;2.322;2023-03-30T11:04:17;21.80;16.90
820;DHT22;392;48.838;2.322;2023-03-30T11:06:49;21.50;17.80
820;DHT22;392;48.838;2.322;2023-03-30T11:09:23;21.80;16.90
820;DHT22;392;48.838;2.322;2023-03-30T11:11:56;21.20;17.40
820;DHT22;392;48.838;2.322;2023-03-30T11:14:40;20.90;18.40
820;DHT22;392;48.838;2.322;2023-03-30T11:17:20;21.90;17.10
820;DHT22;392;48.838;2.322;2023-03-30T11:19:52;22.80;15.90
820;DHT22;392;48.838;2.322;2023-03-30T11:22:27;23.40;14.00
820;DHT22;392;48.838;2.322;2023-03-30T11:25:03;24.00;12.90
820;DHT22;392;48.838;2.322;2023-03-30T11:27:38;23.80;12.70
820;DHT22;392;48.838;2.322;2023-03-30T11:30:11;23.00;13.40
820;DHT22;392;48.838;2.322;2023-03-30T11:32:46;22.40;13.50
820;DHT22;392;48.838;2.322;2023-03-30T11:35:20;21.90;14.80
820;DHT22;392;48.838;2.322;2023-03-30T11:37:57;21.30;15.00
820;DHT22;392;48.838;2.322;2023-03-30T11:40:33;20.60;16.10
820;DHT22;392;48.838;2.322;2023-03-30T11:43:06;19.90;17.30
820;DHT22;392;48.838;2.322;2023-03-30T11:45:42;19.50;18.30
820;DHT22;392;48.838;2.322;2023-03-30T11:48:35;19.10;19.40
820;DHT22;392;48.838;2.322;2023-03-30T11:51:20;18.70;20.40
820;DHT22;392;48.838;2.322;2023-03-30T11:54:01;18.50;21.60
820;DHT22;392;48.838;2.322;2023-03-30T11:56:40;18.30;22.00
820;DHT22;392;48.838;2.322;2023-03-30T11:59:16;18.10;22.60
820;DHT22;392;48.838;2.322;2023-03-30T12:02:05;18.10;22.70
820;DHT22;392;48.838;2.322;2023-03-30T12:04:41;18.10;22.70
820;DHT22;392;48.838;2.322;2023-03-30T12:07:19;18.40;22.40
820;DHT22;392;48.838;2.322;2023-03-30T12:09:55;18.40;22.40
820;DHT22;392;48.838;2.322;2023-03-30T12:12:30;18.40;22.90
820;DHT22;392;48.838;2.322;2023-03-30T12:15:14;19.30;22.40
820;DHT22;392;48.838;2.322;2023-03-30T12:17:53;20.90;20.00
820;DHT22;392;48.838;2.322;2023-03-30T12:20:34;22.40;17.60
820;DHT22;392;48.838;2.322;2023-03-30T12:23:17;23.70;15.70
820;DHT22;392;48.838;2.322;2023-03-30T12:26:00;24.70;14.60
820;DHT22;392;48.838;2.322;2023-03-30T12:28:44;25.30;12.90
820;DHT22;392;48.838;2.322;2023-03-30T12:31:13;25.30;12.70
820;DHT22;392;48.838;2.322;2023-03-30T12:33:45;25.10;13.10
820;DHT22;392;48.838;2.322;2023-03-30T12:36:30;25.60;12.30
820;DHT22;392;48.838;2.322;2023-03-30T12:39:00;25.60;11.80
820;DHT22;392;48.838;2.322;2023-03-30T12:41:39;25.60;11.50
820;DHT22;392;48.838;2.322;2023-03-30T12:44:27;25.30;12.00
820;DHT22;392;48.838;2.322;2023-03-30T12:47:31;25.40;11.40
820;DHT22;392;48.838;2.322;2023-03-30T12:50:22;25.30;11.90
820;DHT22;392;48.838;2.322;2023-03-30T12:53:19;25.10;11.40
820;DHT22;392;48.838;2.322;2023-03-30T12:56:00;24.90;11.70
820;DHT22;392;48.838;2.322;2023-03-30T12:58:54;24.80;12.10
820;DHT22;392;48.838;2.322;2023-03-30T13:01:57;24.70;12.20
820;DHT22;392;48.838;2.322;2023-03-30T13:04:31;23.60;13.40
820;DHT22;392;48.838;2.322;2023-03-30T13:07:04;22.80;14.80
820;DHT22;392;48.838;2.322;2023-03-30T13:09:49;23.20;15.30
820;DHT22;392;48.838;2.322;2023-03-30T13:12:29;23.60;14.70
820;DHT22;392;48.838;2.322;2023-03-30T13:15:01;23.70;13.90
820;DHT22;392;48.838;2.322;2023-03-30T13:17:56;23.00;15.20
820;DHT22;392;48.838;2.322;2023-03-30T13:20:28;22.70;15.70
820;DHT22;392;48.838;2.322;2023-03-30T13:23:24;22.60;16.50
820;DHT22;392;48.838;2.322;2023-03-30T13:26:02;22.80;16.70
820;DHT22;392;48.838;2.322;2023-03-30T13:28:54;23.30;15.80
820;DHT22;392;48.838;2.322;2023-03-30T13:31:41;23.40;15.30
820;DHT22;392;48.838;2.322;2023-03-30T13:34:26;23.20;15.30
820;DHT22;392;48.838;2.322;2023-03-30T13:37:03;22.70;15.40
820;DHT22;392;48.838;2.322;2023-03-30T13:39:38;22.60;15.90
820;DHT22;392;48.838;2.322;2023-03-30T13:42:19;22.50;15.80
820;DHT22;392;48.838;2.322;2023-03-30T13:44:57;22.60;16.20
820;DHT22;392;48.838;2.322;2023-03-30T13:47:54;22.40;16.30
820;DHT22;392;48.838;2.322;2023-03-30T13:50:28;22.50;15.90
820;DHT22;392;48.838;2.322;2023-03-30T13:53:00;22.60;15.90
820;DHT22;392;48.838;2.322;2023-03-30T13:55:31;22.50;15.70
820;DHT22;392;48.838;2.322;2023-03-30T13:58:02;22.60;15.50
820;DHT22;392;48.838;2.322;2023-03-30T14:00:37;22.80;15.20
820;DHT22;392;48.838;2.322;2023-03-30T14:03:28;22.60;15.20
820;DHT22;392;48.838;2.322;2023-03-30T14:06:01;22.20;15.50
820;DHT22;392;48.838;2.322;2023-03-30T14:08:32;22.10;15.70
820;DHT22;392;48.838;2.322;2023-03-30T14:11:03;21.80;15.60
820;DHT22;392;48.838;2.322;2023-03-30T14:13:35;21.30;16.50
820;DHT22;392;48.838;2.322;2023-03-30T14:16:05;21.10;16.90
820;DHT22;392;48.838;2.322;2023-03-30T14:18:33;20.90;17.70
820;DHT22;392;48.838;2.322;2023-03-30T14:21:03;20.60;17.50
820;DHT22;392;48.838;2.322;2023-03-30T14:23:38;20.40;17.80
820;DHT22;392;48.838;2.322;2023-03-30T14:26:12;20.20;18.20
820;DHT22;392;48.838;2.322;2023-03-30T14:28:41;20.10;18.30
820;DHT22;392;48.838;2.322;2023-03-30T14:31:16;19.60;19.00
820;DHT22;392;48.838;2.322;2023-03-30T14:33:45;19.40;19.50
820;DHT22;392;48.838;2.322;2023-03-30T14:36:16;19.20;19.70
820;DHT22;392;48.838;2.322;2023-03-30T14:38:47;19.10;20.20
820;DHT22;392;48.838;2.322;2023-03-30T14:41:20;19.00;20.30
820;DHT22;392;48.838;2.322;2023-03-30T14:43:52;18.90;21.80
820;DHT22;392;48.838;2.322;2023-03-30T14:46:22;18.90;22.20
820;DHT22;392;48.838;2.322;2023-03-30T14:48:51;18.90;22.40
820;DHT22;392;48.838;2.322;2023-03-30T14:51:26;18.80;22.90
820;DHT22;392;48.838;2.322;2023-03-30T14:54:02;18.70;23.20
820;DHT22;392;48.838;2.322;2023-03-30T14:56:30;18.50;24.00
820;DHT22;392;48.838;2.322;2023-03-30T14:58:58;18.30;27.00
820;DHT22;392;48.838;2.322;2023-03-30T15:01:28;18.10;33.00
820;DHT22;392;48.838;2.322;2023-03-30T15:03:58;17.70;37.50
820;DHT22;392;48.838;2.322;2023-03-30T15:06:29;17.40;38.90
820;DHT22;392;48.838;2.322;2023-03-30T15:08:59;17.30;40.70
820;DHT22;392;48.838;2.322;2023-03-30T15:11:29;17.20;41.10
820;DHT22;392;48.838;2.322;2023-03-30T15:14:01;17.20;39.30
820;DHT22;392;48.838;2.322;2023-03-30T15:16:32;17.20;38.40
820;DHT22;392;48.838;2.322;2023-03-30T15:19:02;17.20;39.60
820;DHT22;392;48.838;2.322;2023-03-30T15:21:34;17.30;38.10
820;DHT22;392;48.838;2.322;2023-03-30T15:24:04;17.30;37.30
820;DHT22;392;48.838;2.322;2023-03-30T15:26:33;17.40;36.30
820;DHT22;392;48.838;2.322;2023-03-30T15:29:03;17.40;36.90
820;DHT22;392;48.838;2.322;2023-03-30T15:31:31;17.50;35.80
820;DHT22;392;48.838;2.322;2023-03-30T15:33:58;17.50;35.10
820;DHT22;392;48.838;2.322;2023-03-30T15:36:36;17.60;32.50
820;DHT22;392;48.838;2.322;2023-03-30T15:39:18;17.70;30.10
820;DHT22;392;48.838;2.322;2023-03-30T15:41:48;17.70;27.60
820;DHT22;392;48.838;2.322;2023-03-30T15:44:18;17.70;28.40
820;DHT22;392;48.838;2.322;2023-03-30T15:46:47;17.80;27.40
820;DHT22;392;48.838;2.322;2023-03-30T15:49:18;17.90;27.60
820;DHT22;392;48.838;2.322;2023-03-30T15:51:51;18.10;27.30
820;DHT22;392;48.838;2.322;2023-03-30T15:54:22;18.10;25.80
820;DHT22;392;48.838;2.322;2023-03-30T15:56:58;18.10;24.90
820;DHT22;392;48.838;2.322;2023-03-30T15:59:30;18.10;24.70
820;DHT22;392;48.838;2.322;2023-03-30T16:02:01;18.10;25.00
820;DHT22;392;48.838;2.322;2023-03-30T16:04:38;18.00;25.20
820;DHT22;392;48.838;2.322;2023-03-30T16:07:13;18.00;25.20
820;DHT22;392;48.838;2.322;2023-03-30T16:09:42;18.10;25.10
820;DHT22;392;48.838;2.322;2023-03-30T16:12:12;18.20;24.60
820;DHT22;392;48.838;2.322;2023-03-30T16:14:41;18.10;24.10
820;DHT22;392;48.838;2.322;2023-03-30T16:17:09;18.00;24.40
820;DHT22;392;48.838;2.322;2023-03-30T16:19:38;17.90;24.60
820;DHT22;392;48.838;2.322;2023-03-30T16:22:06;17.90;25.40
820;DHT22;392;48.838;2.322;2023-03-30T16:24:35;17.80;26.40
820;DHT22;392;48.838;2.322;2023-03-30T16:27:03;17.70;26.30
820;DHT22;392;48.838;2.322;2023-03-30T16:29:32;17.60;26.60
820;DHT22;392;48.838;2.322;2023-03-30T16:31:59;17.60;27.30
820;DHT22;392;48.838;2.322;2023-03-30T16:34:27;17.50;27.30
820;DHT22;392;48.838;2.322;2023-03-30T16:36:54;17.50;27.50
820;DHT22;392;48.838;2.322;2023-03-30T16:39:23;17.40;28.00
820;DHT22;392;48.838;2.322;2023-03-30T16:41:54;17.40;28.30
820;DHT22;392;48.838;2.322;2023-03-30T16:44:23;17.40;28.60
820;DHT22;392;48.838;2.322;2023-03-30T16:46:51;17.30;29.30
820;DHT22;392;48.838;2.322;2023-03-30T16:49:21;17.20;29.70
820;DHT22;392;48.838;2.322;2023-03-30T16:51:50;17.20;30.80
820;DHT22;392;48.838;2.322;2023-03-30T16:54:18;17.30;30.30
820;DHT22;392;48.838;2.322;2023-03-30T16:56:46;17.30;30.40
820;DHT22;392;48.838;2.322;2023-03-30T16:59:20;17.30;30.80
820;DHT22;392;48.838;2.322;2023-03-30T17:01:49;17.30;31.40
820;DHT22;392;48.838;2.322;2023-03-30T17:04:17;17.30;31.50
820;DHT22;392;48.838;2.322;2023-03-30T17:06:44;17.30;31.40
820;DHT22;392;48.838;2.322;2023-03-30T17:09:14;17.20;31.90
820;DHT22;392;48.838;2.322;2023-03-30T17:11:42;17.20;31.90
820;DHT22;392;48.838;2.322;2023-03-30T17:14:09;17.20;32.10
820;DHT22;392;48.838;2.322;2023-03-30T17:16:39;17.00;32.60
820;DHT22;392;48.838;2.322;2023-03-30T17:19:09;16.90;33.40
820;DHT22;392;48.838;2.322;2023-03-30T17:21:38;16.90;34.00
820;DHT22;392;48.838;2.322;2023-03-30T17:24:07;16.80;33.80
820;DHT22;392;48.838;2.322;2023-03-30T17:26:36;16.80;34.20
820;DHT22;392;48.838;2.322;2023-03-30T17:29:03;16.80;34.30